Terminal Aerodrome Forecast
Issued by NWS Sioux Falls, SD

Home | Current Version | Previous Version | Text Only | Print | Product List | Glossary On
Versions: 1 2 3 4 5 6 7 8 9 10 11 12 13 14
000
FTUS43 KFSD 101724
TAFFSD
TAF
KFSD 101724Z 1018/1118 31012KT P6SM FEW250
     FM102300 29007KT P6SM SCT250
     FM110200 25006KT P6SM BKN140
     FM111000 28011KT P6SM SCT150
     FM111200 31015G23KT P6SM BKN035
     FM111500 32020G30KT P6SM VCSH OVC025=

USA.gov is the U.S. government's official web portal to all federal, state and local government web resources and services.